You are not logged in, Click here to log in
ICAO: RCMQ Country: 臺灣臺中市
Latitude: 24.255 Longitude: 120.601
Total Arrivals: 61 Total Departures: 58
Latest Arrival: E33052 (RCQC-RCMQ)Banloo. Lee Latest Departure: B7282 (RCMQ-ROAH)Banloo. Lee
Scenery:
METAR : RCMQ 241100Z 00000KT 9999 FEW012 BKN050 25/22 Q1012 NOSIG RMK A2989

臺中清泉崗機場RMQ